Saint Louis, Missouri
Traffic Map
Current Weather Conditions
Saint Louis, Missouri
Overcast
Overcast
26°
Feels Like: 26°
Wind Chill: 26° Ceiling: 7000
Heat Index: 26° Visibility: 10mi
Dew Point: 17° Wind: 0mph
Humidity: 69% Direction: ° ()
Pressure: 30.58in Gusts: 0mph
Raw Report DataKCPS 101053Z AUTO 00000KT 10SM OVC070 M03/M08 A3058 RMK AO2 SLP361 T10331083 $
Traffic Incident Summary
Active as of:
Severity:
Category:
InformationThere was an issue retrieving the traffic information for this location. Please try a different location or try again shortly.
Advertisements
Track Severe Weather on mobile